createdAt,value
2018-11-20T00:03:13.400Z,26.13
2018-11-20T00:12:00.430Z,24.87
2018-11-20T00:20:40.171Z,23.13
2018-11-20T00:29:11.003Z,26.90
2018-11-20T00:37:46.716Z,25.00
2018-11-20T00:46:26.076Z,24.10
2018-11-20T00:55:05.440Z,23.80
2018-11-20T01:03:47.797Z,24.17
2018-11-20T01:12:28.582Z,22.23
2018-11-20T01:21:08.129Z,22.90
2018-11-20T01:29:52.178Z,24.03
2018-11-20T01:38:35.434Z,23.37
2018-11-20T01:47:13.384Z,24.23
2018-11-20T01:56:02.961Z,22.57
2018-11-20T02:04:42.532Z,23.73
2018-11-20T02:13:19.818Z,23.27
2018-11-20T02:22:00.572Z,23.47
2018-11-20T02:30:37.646Z,21.87
2018-11-20T02:39:27.571Z,22.80
2018-11-20T02:48:17.434Z,24.03
2018-11-20T02:57:13.259Z,25.63
2018-11-20T03:05:52.906Z,23.10
2018-11-20T03:14:21.479Z,21.53
2018-11-20T03:22:49.863Z,21.60
2018-11-20T03:31:36.439Z,22.80
2018-11-20T03:40:32.282Z,22.93
2018-11-20T03:49:11.737Z,24.20
2018-11-20T03:57:58.571Z,22.27
2018-11-20T04:06:39.343Z,23.30
2018-11-20T04:15:18.810Z,22.93
2018-11-20T04:24:10.486Z,24.97
2018-11-20T04:33:00.252Z,24.63
2018-11-20T04:41:32.716Z,22.73
2018-11-20T04:49:59.364Z,22.77
2018-11-20T04:58:39.122Z,22.60
2018-11-20T05:07:18.852Z,23.00
2018-11-20T05:16:02.609Z,23.77
2018-11-20T05:25:01.852Z,21.07
2018-11-20T05:33:41.256Z,21.57
2018-11-20T05:42:18.423Z,22.13
2018-11-20T05:51:02.367Z,23.93
2018-11-20T05:59:58.282Z,23.47
2018-11-20T06:08:38.161Z,21.37
2018-11-20T06:17:14.537Z,21.77
2018-11-20T06:26:04.484Z,21.10
2018-11-20T06:34:48.180Z,20.23
2018-11-20T06:43:44.180Z,19.70
2018-11-20T06:52:28.516Z,20.27
2018-11-20T07:00:58.291Z,23.13
2018-11-20T07:09:34.561Z,18.97
2018-11-20T07:18:25.306Z,22.17
2018-11-20T07:27:09.170Z,19.00
2018-11-20T07:35:44.171Z,20.00
2018-11-20T07:44:14.819Z,18.47
2018-11-20T07:52:54.250Z,23.40
2018-11-20T08:01:41.276Z,24.33
2018-11-20T08:10:27.872Z,23.33
2018-11-20T08:19:00.029Z,27.53
2018-11-20T08:27:39.457Z,27.03
2018-11-20T08:36:20.224Z,27.30
2018-11-20T08:45:00.987Z,27.47
2018-11-20T08:53:57.153Z,28.03
2018-11-20T09:02:46.990Z,24.40
2018-11-20T09:11:37.768Z,24.10
2018-11-20T09:20:24.684Z,24.03
2018-11-20T09:29:03.960Z,23.13
2018-11-20T09:37:57.152Z,17.00
2018-11-20T09:46:36.760Z,15.13
2018-11-20T09:55:16.983Z,15.87
2018-11-20T10:03:56.540Z,14.13
2018-11-20T10:12:49.601Z,14.83
2018-11-20T10:21:29.324Z,14.73
2018-11-20T10:38:54.661Z,13.00
2018-11-20T10:47:41.852Z,14.10
2018-11-20T10:56:21.284Z,17.20
2018-11-20T11:05:01.409Z,16.10
2018-11-20T11:13:40.964Z,14.60
2018-11-20T11:22:21.719Z,15.83
2018-11-20T11:31:08.494Z,14.07
2018-11-20T11:39:52.030Z,11.17
2018-11-20T11:48:31.840Z,9.93
2018-11-20T11:57:12.617Z,11.50
2018-11-20T12:05:56.147Z,11.10
2018-11-20T12:14:42.739Z,11.30
2018-11-20T12:23:26.657Z,10.90
2018-11-20T12:32:16.273Z,10.57
2018-11-20T12:40:57.066Z,9.57
2018-11-20T12:49:36.480Z,11.83
2018-11-20T12:58:23.602Z,9.50
2018-11-20T13:07:05.164Z,13.10
2018-11-20T13:15:47.102Z,10.33
2018-11-20T13:24:21.197Z,10.77
2018-11-20T13:33:17.831Z,11.90
2018-11-20T13:41:55.116Z,11.57
2018-11-20T13:50:41.990Z,9.57
2018-11-20T13:59:21.564Z,9.50
2018-11-20T14:08:01.291Z,12.67
2018-11-20T14:16:48.530Z,10.50
2018-11-20T14:25:32.314Z,10.73
2018-11-20T14:34:11.915Z,11.17
2018-11-20T14:42:52.679Z,11.03
2018-11-20T14:51:48.846Z,10.40
2018-11-20T15:00:28.305Z,9.90
2018-11-20T15:09:18.266Z,11.63
2018-11-20T15:17:59.032Z,12.40
2018-11-20T15:26:52.136Z,13.50
2018-11-20T15:35:42.088Z,12.73
2018-11-20T15:44:21.530Z,12.60
2018-11-20T15:53:02.383Z,14.53
2018-11-20T16:01:49.232Z,16.40
2018-11-20T16:10:33.216Z,14.30
2018-11-20T16:19:16.770Z,13.13
2018-11-20T16:27:56.388Z,16.43
2018-11-20T16:36:36.033Z,20.80
2018-11-20T16:45:29.144Z,25.67
2018-11-20T16:54:08.665Z,26.83
2018-11-20T17:02:52.673Z,28.03
2018-11-20T17:11:32.416Z,24.60
2018-11-20T17:20:25.589Z,26.63
2018-11-20T17:29:05.539Z,25.23
2018-11-20T17:37:49.387Z,29.17
2018-11-20T17:46:36.132Z,25.00
2018-11-20T17:55:15.610Z,28.27
2018-11-20T18:04:05.747Z,22.77
2018-11-20T18:12:55.570Z,25.30
2018-11-20T18:21:31.161Z,28.27
2018-11-20T18:30:11.930Z,26.33
2018-11-20T18:38:51.829Z,26.07
2018-11-20T18:47:43.922Z,31.53
2018-11-20T18:56:29.047Z,33.50
2018-11-20T19:05:22.157Z,33.63
2018-11-20T19:13:58.978Z,30.07
2018-11-20T19:22:29.003Z,32.57
2018-11-20T19:31:15.825Z,30.63
2018-11-20T19:40:05.463Z,25.87
2018-11-20T19:48:39.955Z,26.80
2018-11-20T19:57:17.782Z,34.57
2018-11-20T20:06:01.592Z,33.90
2018-11-20T20:14:41.067Z,40.47
2018-11-20T20:23:34.108Z,37.83
2018-11-20T20:32:10.351Z,37.97
2018-11-20T20:41:03.741Z,38.03
2018-11-20T20:49:47.704Z,42.17
2018-11-20T20:58:15.239Z,39.30
2018-11-20T21:07:11.493Z,37.93
2018-11-20T21:15:58.452Z,32.90
2018-11-20T21:24:39.217Z,34.23
2018-11-20T21:33:18.639Z,32.80
2018-11-20T21:41:59.401Z,31.30
2018-11-20T21:50:40.169Z,36.47
2018-11-20T21:59:19.607Z,40.17
2018-11-20T22:07:59.492Z,33.30
2018-11-20T22:16:39.182Z,34.43
2018-11-20T22:25:13.485Z,47.83
2018-11-20T22:33:54.315Z,43.23
2018-11-20T22:42:41.334Z,39.00
2018-11-20T22:51:21.351Z,41.17
2018-11-20T23:00:02.112Z,38.57
2018-11-20T23:08:23.774Z,34.67
2018-11-20T23:16:45.319Z,36.50
2018-11-20T23:25:06.510Z,37.10
2018-11-20T23:33:27.680Z,38.90
2018-11-20T23:41:48.857Z,37.13
2018-11-20T23:50:12.337Z,36.33
2018-11-20T23:58:33.500Z,33.40
